sensor_id;sensor_type;location;lat;lon;timestamp;P1;durP1;ratioP1;P2;durP2;ratioP2
16665;SDS011;8446;50.998;6.250;2022-07-24T00:02:03;14.73;;;5.77;;
16665;SDS011;8446;50.998;6.250;2022-07-24T00:04:30;6.83;;;5.37;;
16665;SDS011;8446;50.998;6.250;2022-07-24T00:06:57;15.83;;;7.27;;
16665;SDS011;8446;50.998;6.250;2022-07-24T00:09:24;11.17;;;6.37;;
16665;SDS011;8446;50.998;6.250;2022-07-24T00:11:51;7.23;;;5.83;;
16665;SDS011;8446;50.998;6.250;2022-07-24T00:14:19;9.27;;;6.70;;
16665;SDS011;8446;50.998;6.250;2022-07-24T00:16:46;8.40;;;6.57;;
16665;SDS011;8446;50.998;6.250;2022-07-24T00:19:12;9.10;;;6.10;;
16665;SDS011;8446;50.998;6.250;2022-07-24T00:21:39;7.63;;;5.90;;
16665;SDS011;8446;50.998;6.250;2022-07-24T00:24:06;10.30;;;5.70;;
16665;SDS011;8446;50.998;6.250;2022-07-24T00:26:33;9.10;;;6.93;;
16665;SDS011;8446;50.998;6.250;2022-07-24T00:29:00;11.07;;;6.33;;
16665;SDS011;8446;50.998;6.250;2022-07-24T00:31:29;9.10;;;7.60;;
16665;SDS011;8446;50.998;6.250;2022-07-24T00:33:56;10.50;;;6.50;;
16665;SDS011;8446;50.998;6.250;2022-07-24T00:36:23;10.43;;;7.10;;
16665;SDS011;8446;50.998;6.250;2022-07-24T00:38:50;12.63;;;6.10;;
16665;SDS011;8446;50.998;6.250;2022-07-24T00:41:16;12.33;;;7.37;;
16665;SDS011;8446;50.998;6.250;2022-07-24T00:43:59;10.40;;;7.60;;
16665;SDS011;8446;50.998;6.250;2022-07-24T00:46:31;13.77;;;6.70;;
16665;SDS011;8446;50.998;6.250;2022-07-24T00:48:59;14.13;;;6.80;;
16665;SDS011;8446;50.998;6.250;2022-07-24T00:51:26;8.90;;;6.17;;
16665;SDS011;8446;50.998;6.250;2022-07-24T00:53:53;10.50;;;6.60;;
16665;SDS011;8446;50.998;6.250;2022-07-24T00:56:20;9.93;;;7.20;;
16665;SDS011;8446;50.998;6.250;2022-07-24T00:58:47;10.27;;;6.83;;
16665;SDS011;8446;50.998;6.250;2022-07-24T01:01:14;13.57;;;7.00;;
16665;SDS011;8446;50.998;6.250;2022-07-24T01:03:44;13.73;;;6.67;;
16665;SDS011;8446;50.998;6.250;2022-07-24T01:06:12;12.43;;;6.73;;
16665;SDS011;8446;50.998;6.250;2022-07-24T01:08:39;12.50;;;6.80;;
16665;SDS011;8446;50.998;6.250;2022-07-24T01:11:08;11.93;;;6.87;;
16665;SDS011;8446;50.998;6.250;2022-07-24T01:13:36;10.03;;;7.30;;
16665;SDS011;8446;50.998;6.250;2022-07-24T01:16:03;12.03;;;7.30;;
16665;SDS011;8446;50.998;6.250;2022-07-24T01:18:31;14.70;;;6.80;;
16665;SDS011;8446;50.998;6.250;2022-07-24T01:20:59;10.50;;;7.17;;
16665;SDS011;8446;50.998;6.250;2022-07-24T01:23:26;22.83;;;7.70;;
16665;SDS011;8446;50.998;6.250;2022-07-24T01:25:53;11.67;;;7.00;;
16665;SDS011;8446;50.998;6.250;2022-07-24T01:28:20;21.90;;;7.90;;
16665;SDS011;8446;50.998;6.250;2022-07-24T01:30:46;11.10;;;7.00;;
16665;SDS011;8446;50.998;6.250;2022-07-24T01:33:14;14.03;;;7.13;;
16665;SDS011;8446;50.998;6.250;2022-07-24T01:35:41;18.73;;;6.77;;
16665;SDS011;8446;50.998;6.250;2022-07-24T01:38:09;8.70;;;6.70;;
16665;SDS011;8446;50.998;6.250;2022-07-24T01:40:38;10.70;;;8.13;;
16665;SDS011;8446;50.998;6.250;2022-07-24T01:43:05;12.40;;;6.90;;
16665;SDS011;8446;50.998;6.250;2022-07-24T01:45:33;19.50;;;7.83;;
16665;SDS011;8446;50.998;6.250;2022-07-24T01:48:00;15.63;;;6.80;;
16665;SDS011;8446;50.998;6.250;2022-07-24T01:50:26;20.17;;;7.90;;
16665;SDS011;8446;50.998;6.250;2022-07-24T01:52:53;21.13;;;7.10;;
16665;SDS011;8446;50.998;6.250;2022-07-24T01:55:21;21.57;;;7.17;;
16665;SDS011;8446;50.998;6.250;2022-07-24T01:57:48;9.70;;;6.90;;
16665;SDS011;8446;50.998;6.250;2022-07-24T02:00:16;15.87;;;6.77;;
16665;SDS011;8446;50.998;6.250;2022-07-24T02:02:43;8.23;;;6.40;;
16665;SDS011;8446;50.998;6.250;2022-07-24T02:05:11;13.03;;;6.40;;
16665;SDS011;8446;50.998;6.250;2022-07-24T02:07:38;14.13;;;7.83;;
16665;SDS011;8446;50.998;6.250;2022-07-24T02:10:06;9.53;;;7.07;;
16665;SDS011;8446;50.998;6.250;2022-07-24T02:12:34;13.10;;;8.00;;
16665;SDS011;8446;50.998;6.250;2022-07-24T02:15:01;13.33;;;8.63;;
16665;SDS011;8446;50.998;6.250;2022-07-24T02:17:29;12.63;;;7.17;;
16665;SDS011;8446;50.998;6.250;2022-07-24T02:19:55;12.77;;;7.43;;
16665;SDS011;8446;50.998;6.250;2022-07-24T02:22:22;12.40;;;6.90;;
16665;SDS011;8446;50.998;6.250;2022-07-24T02:24:49;13.23;;;6.70;;
16665;SDS011;8446;50.998;6.250;2022-07-24T02:27:16;13.67;;;7.03;;
16665;SDS011;8446;50.998;6.250;2022-07-24T02:29:44;17.53;;;7.20;;
16665;SDS011;8446;50.998;6.250;2022-07-24T02:32:11;9.40;;;7.03;;
16665;SDS011;8446;50.998;6.250;2022-07-24T02:34:37;12.20;;;6.70;;
16665;SDS011;8446;50.998;6.250;2022-07-24T02:37:04;12.73;;;7.23;;
16665;SDS011;8446;50.998;6.250;2022-07-24T02:39:31;15.37;;;7.57;;
16665;SDS011;8446;50.998;6.250;2022-07-24T02:41:58;13.63;;;7.00;;
16665;SDS011;8446;50.998;6.250;2022-07-24T02:44:24;25.47;;;7.83;;
16665;SDS011;8446;50.998;6.250;2022-07-24T02:46:52;21.60;;;6.80;;
16665;SDS011;8446;50.998;6.250;2022-07-24T02:49:19;11.13;;;6.77;;
16665;SDS011;8446;50.998;6.250;2022-07-24T02:51:46;10.13;;;7.40;;
16665;SDS011;8446;50.998;6.250;2022-07-24T02:54:12;9.70;;;7.33;;
16665;SDS011;8446;50.998;6.250;2022-07-24T02:56:39;12.10;;;7.10;;
16665;SDS011;8446;50.998;6.250;2022-07-24T02:59:06;11.93;;;7.50;;
16665;SDS011;8446;50.998;6.250;2022-07-24T03:01:33;14.30;;;7.80;;
16665;SDS011;8446;50.998;6.250;2022-07-24T03:04:01;8.67;;;6.70;;
16665;SDS011;8446;50.998;6.250;2022-07-24T03:06:28;14.60;;;7.73;;
16665;SDS011;8446;50.998;6.250;2022-07-24T03:08:54;14.33;;;7.63;;
16665;SDS011;8446;50.998;6.250;2022-07-24T03:11:21;14.33;;;7.30;;
16665;SDS011;8446;50.998;6.250;2022-07-24T03:13:48;13.00;;;7.40;;
16665;SDS011;8446;50.998;6.250;2022-07-24T03:16:15;12.80;;;7.30;;
16665;SDS011;8446;50.998;6.250;2022-07-24T03:18:41;22.30;;;7.30;;
16665;SDS011;8446;50.998;6.250;2022-07-24T03:21:12;11.40;;;7.13;;
16665;SDS011;8446;50.998;6.250;2022-07-24T03:23:39;8.90;;;6.87;;
16665;SDS011;8446;50.998;6.250;2022-07-24T03:26:06;8.07;;;6.37;;
16665;SDS011;8446;50.998;6.250;2022-07-24T03:28:34;15.07;;;7.70;;
16665;SDS011;8446;50.998;6.250;2022-07-24T03:31:01;10.83;;;7.70;;
16665;SDS011;8446;50.998;6.250;2022-07-24T03:33:28;16.63;;;7.47;;
16665;SDS011;8446;50.998;6.250;2022-07-24T03:35:55;16.33;;;7.27;;
16665;SDS011;8446;50.998;6.250;2022-07-24T03:38:23;11.10;;;8.27;;
16665;SDS011;8446;50.998;6.250;2022-07-24T03:40:50;14.73;;;7.80;;
16665;SDS011;8446;50.998;6.250;2022-07-24T03:43:16;10.70;;;7.17;;
16665;SDS011;8446;50.998;6.250;2022-07-24T03:45:43;14.33;;;8.53;;
16665;SDS011;8446;50.998;6.250;2022-07-24T03:48:10;13.97;;;8.47;;
16665;SDS011;8446;50.998;6.250;2022-07-24T03:50:37;12.83;;;7.67;;
16665;SDS011;8446;50.998;6.250;2022-07-24T03:53:04;12.40;;;7.50;;
16665;SDS011;8446;50.998;6.250;2022-07-24T03:55:32;10.90;;;7.43;;
16665;SDS011;8446;50.998;6.250;2022-07-24T03:57:59;13.53;;;8.50;;
16665;SDS011;8446;50.998;6.250;2022-07-24T04:00:26;20.43;;;7.90;;
16665;SDS011;8446;50.998;6.250;2022-07-24T04:02:52;12.50;;;8.23;;
16665;SDS011;8446;50.998;6.250;2022-07-24T04:05:19;11.73;;;9.00;;
16665;SDS011;8446;50.998;6.250;2022-07-24T04:07:46;15.20;;;8.80;;
16665;SDS011;8446;50.998;6.250;2022-07-24T04:10:13;15.63;;;7.30;;
16665;SDS011;8446;50.998;6.250;2022-07-24T04:12:41;14.50;;;8.03;;
16665;SDS011;8446;50.998;6.250;2022-07-24T04:15:08;12.30;;;7.97;;
16665;SDS011;8446;50.998;6.250;2022-07-24T04:17:37;16.87;;;8.47;;
16665;SDS011;8446;50.998;6.250;2022-07-24T04:20:05;16.43;;;9.40;;
16665;SDS011;8446;50.998;6.250;2022-07-24T04:22:33;11.00;;;8.03;;
16665;SDS011;8446;50.998;6.250;2022-07-24T04:24:59;12.50;;;8.40;;
16665;SDS011;8446;50.998;6.250;2022-07-24T04:27:26;13.90;;;7.90;;
16665;SDS011;8446;50.998;6.250;2022-07-24T04:29:54;11.83;;;7.80;;
16665;SDS011;8446;50.998;6.250;2022-07-24T04:32:22;16.00;;;7.93;;
16665;SDS011;8446;50.998;6.250;2022-07-24T04:34:49;12.47;;;9.10;;
16665;SDS011;8446;50.998;6.250;2022-07-24T04:37:16;11.33;;;8.23;;
16665;SDS011;8446;50.998;6.250;2022-07-24T04:39:43;14.73;;;9.00;;
16665;SDS011;8446;50.998;6.250;2022-07-24T04:42:10;12.83;;;8.90;;
16665;SDS011;8446;50.998;6.250;2022-07-24T04:44:36;12.70;;;8.63;;
16665;SDS011;8446;50.998;6.250;2022-07-24T04:47:04;18.90;;;10.27;;
16665;SDS011;8446;50.998;6.250;2022-07-24T04:49:31;18.40;;;9.20;;
16665;SDS011;8446;50.998;6.250;2022-07-24T04:51:58;12.97;;;9.47;;
16665;SDS011;8446;50.998;6.250;2022-07-24T04:54:25;12.03;;;8.80;;
16665;SDS011;8446;50.998;6.250;2022-07-24T04:56:51;14.10;;;9.20;;
16665;SDS011;8446;50.998;6.250;2022-07-24T04:59:18;14.90;;;9.60;;
16665;SDS011;8446;50.998;6.250;2022-07-24T05:01:45;12.53;;;8.33;;
16665;SDS011;8446;50.998;6.250;2022-07-24T05:04:13;15.10;;;8.93;;
16665;SDS011;8446;50.998;6.250;2022-07-24T05:06:41;14.90;;;9.40;;
16665;SDS011;8446;50.998;6.250;2022-07-24T05:09:07;14.23;;;8.40;;
16665;SDS011;8446;50.998;6.250;2022-07-24T05:11:34;12.93;;;8.23;;
16665;SDS011;8446;50.998;6.250;2022-07-24T05:14:01;13.70;;;8.10;;
16665;SDS011;8446;50.998;6.250;2022-07-24T05:16:28;13.60;;;8.47;;
16665;SDS011;8446;50.998;6.250;2022-07-24T05:18:54;15.87;;;8.43;;
16665;SDS011;8446;50.998;6.250;2022-07-24T05:21:23;12.20;;;8.73;;
16665;SDS011;8446;50.998;6.250;2022-07-24T05:23:50;15.07;;;8.13;;
16665;SDS011;8446;50.998;6.250;2022-07-24T05:26:16;11.57;;;8.50;;
16665;SDS011;8446;50.998;6.250;2022-07-24T05:28:43;11.50;;;8.80;;
16665;SDS011;8446;50.998;6.250;2022-07-24T05:31:10;14.77;;;7.70;;
16665;SDS011;8446;50.998;6.250;2022-07-24T05:33:37;15.20;;;8.40;;
16665;SDS011;8446;50.998;6.250;2022-07-24T05:36:04;15.43;;;8.40;;
16665;SDS011;8446;50.998;6.250;2022-07-24T05:38:32;12.67;;;8.17;;
16665;SDS011;8446;50.998;6.250;2022-07-24T05:40:59;16.53;;;8.50;;
16665;SDS011;8446;50.998;6.250;2022-07-24T05:43:27;11.97;;;8.20;;
16665;SDS011;8446;50.998;6.250;2022-07-24T05:45:55;13.27;;;7.90;;
16665;SDS011;8446;50.998;6.250;2022-07-24T05:48:21;13.37;;;8.30;;
16665;SDS011;8446;50.998;6.250;2022-07-24T05:50:48;13.17;;;7.87;;
16665;SDS011;8446;50.998;6.250;2022-07-24T05:53:15;12.70;;;8.17;;
16665;SDS011;8446;50.998;6.250;2022-07-24T05:55:43;14.60;;;8.53;;
16665;SDS011;8446;50.998;6.250;2022-07-24T05:58:10;15.13;;;8.70;;
16665;SDS011;8446;50.998;6.250;2022-07-24T06:00:37;15.33;;;8.83;;
16665;SDS011;8446;50.998;6.250;2022-07-24T06:03:04;16.73;;;10.40;;
16665;SDS011;8446;50.998;6.250;2022-07-24T06:05:31;13.87;;;10.67;;
16665;SDS011;8446;50.998;6.250;2022-07-24T06:07:58;18.23;;;11.70;;
16665;SDS011;8446;50.998;6.250;2022-07-24T06:10:26;20.33;;;12.47;;
16665;SDS011;8446;50.998;6.250;2022-07-24T06:12:54;22.70;;;12.90;;
16665;SDS011;8446;50.998;6.250;2022-07-24T06:15:21;23.23;;;14.50;;
16665;SDS011;8446;50.998;6.250;2022-07-24T06:17:48;21.70;;;13.50;;
16665;SDS011;8446;50.998;6.250;2022-07-24T06:20:16;18.03;;;14.27;;
16665;SDS011;8446;50.998;6.250;2022-07-24T06:22:43;24.47;;;14.97;;
16665;SDS011;8446;50.998;6.250;2022-07-24T06:25:10;31.33;;;16.00;;
16665;SDS011;8446;50.998;6.250;2022-07-24T06:27:39;25.43;;;17.10;;
16665;SDS011;8446;50.998;6.250;2022-07-24T06:30:11;21.93;;;14.77;;
16665;SDS011;8446;50.998;6.250;2022-07-24T06:32:39;25.80;;;15.57;;
16665;SDS011;8446;50.998;6.250;2022-07-24T06:35:06;21.47;;;15.37;;
16665;SDS011;8446;50.998;6.250;2022-07-24T06:37:33;23.27;;;15.77;;
16665;SDS011;8446;50.998;6.250;2022-07-24T06:39:59;24.27;;;16.70;;
16665;SDS011;8446;50.998;6.250;2022-07-24T06:42:26;27.93;;;16.37;;
16665;SDS011;8446;50.998;6.250;2022-07-24T06:44:53;24.63;;;17.70;;
16665;SDS011;8446;50.998;6.250;2022-07-24T06:47:21;28.03;;;17.30;;
16665;SDS011;8446;50.998;6.250;2022-07-24T06:49:48;27.30;;;16.70;;
16665;SDS011;8446;50.998;6.250;2022-07-24T06:52:15;24.87;;;18.37;;
16665;SDS011;8446;50.998;6.250;2022-07-24T06:54:42;27.57;;;19.53;;
16665;SDS011;8446;50.998;6.250;2022-07-24T06:57:09;28.57;;;19.00;;
16665;SDS011;8446;50.998;6.250;2022-07-24T06:59:36;36.97;;;21.50;;
16665;SDS011;8446;50.998;6.250;2022-07-24T07:02:02;39.20;;;21.90;;
16665;SDS011;8446;50.998;6.250;2022-07-24T07:04:30;29.93;;;19.83;;
16665;SDS011;8446;50.998;6.250;2022-07-24T07:06:57;36.83;;;19.23;;
16665;SDS011;8446;50.998;6.250;2022-07-24T07:09:24;35.53;;;21.10;;
16665;SDS011;8446;50.998;6.250;2022-07-24T07:11:51;43.47;;;22.37;;
16665;SDS011;8446;50.998;6.250;2022-07-24T07:14:18;35.33;;;20.67;;
16665;SDS011;8446;50.998;6.250;2022-07-24T07:16:44;37.40;;;20.40;;
16665;SDS011;8446;50.998;6.250;2022-07-24T07:19:11;27.33;;;19.30;;
16665;SDS011;8446;50.998;6.250;2022-07-24T07:21:39;24.60;;;16.80;;
16665;SDS011;8446;50.998;6.250;2022-07-24T07:24:06;22.53;;;15.00;;
16665;SDS011;8446;50.998;6.250;2022-07-24T07:26:33;29.53;;;16.63;;
16665;SDS011;8446;50.998;6.250;2022-07-24T07:29:00;25.47;;;14.70;;
16665;SDS011;8446;50.998;6.250;2022-07-24T07:31:27;21.53;;;13.37;;
16665;SDS011;8446;50.998;6.250;2022-07-24T07:33:53;19.10;;;13.00;;
16665;SDS011;8446;50.998;6.250;2022-07-24T07:36:21;14.87;;;11.47;;
16665;SDS011;8446;50.998;6.250;2022-07-24T07:38:49;13.07;;;10.80;;
16665;SDS011;8446;50.998;6.250;2022-07-24T07:41:16;15.83;;;10.17;;
16665;SDS011;8446;50.998;6.250;2022-07-24T07:43:44;16.00;;;9.83;;
16665;SDS011;8446;50.998;6.250;2022-07-24T07:46:12;17.43;;;9.37;;
16665;SDS011;8446;50.998;6.250;2022-07-24T07:48:39;11.40;;;8.80;;
16665;SDS011;8446;50.998;6.250;2022-07-24T07:51:05;14.00;;;8.80;;
16665;SDS011;8446;50.998;6.250;2022-07-24T07:53:32;9.30;;;8.20;;
16665;SDS011;8446;50.998;6.250;2022-07-24T07:56:01;14.50;;;9.70;;
16665;SDS011;8446;50.998;6.250;2022-07-24T07:58:28;11.33;;;8.00;;
16665;SDS011;8446;50.998;6.250;2022-07-24T08:00:55;16.83;;;8.50;;
16665;SDS011;8446;50.998;6.250;2022-07-24T08:03:22;11.13;;;8.97;;
16665;SDS011;8446;50.998;6.250;2022-07-24T08:05:49;13.40;;;8.77;;
16665;SDS011;8446;50.998;6.250;2022-07-24T08:08:16;12.50;;;8.60;;
16665;SDS011;8446;50.998;6.250;2022-07-24T08:10:43;12.37;;;8.30;;
16665;SDS011;8446;50.998;6.250;2022-07-24T08:13:11;17.00;;;8.70;;
16665;SDS011;8446;50.998;6.250;2022-07-24T08:15:40;10.00;;;8.80;;
16665;SDS011;8446;50.998;6.250;2022-07-24T08:18:06;12.60;;;8.33;;
16665;SDS011;8446;50.998;6.250;2022-07-24T08:20:33;17.50;;;8.73;;
16665;SDS011;8446;50.998;6.250;2022-07-24T08:23:00;9.30;;;8.30;;
16665;SDS011;8446;50.998;6.250;2022-07-24T08:25:27;10.90;;;8.50;;
16665;SDS011;8446;50.998;6.250;2022-07-24T08:27:53;12.00;;;8.47;;
16665;SDS011;8446;50.998;6.250;2022-07-24T08:30:21;12.17;;;9.00;;
16665;SDS011;8446;50.998;6.250;2022-07-24T08:32:50;11.13;;;7.70;;
16665;SDS011;8446;50.998;6.250;2022-07-24T08:35:17;13.63;;;7.70;;
16665;SDS011;8446;50.998;6.250;2022-07-24T08:37:43;9.30;;;6.90;;
16665;SDS011;8446;50.998;6.250;2022-07-24T08:40:11;9.90;;;6.43;;
16665;SDS011;8446;50.998;6.250;2022-07-24T08:42:38;13.43;;;7.03;;
16665;SDS011;8446;50.998;6.250;2022-07-24T08:45:05;11.90;;;7.10;;
16665;SDS011;8446;50.998;6.250;2022-07-24T08:47:34;10.97;;;6.57;;
16665;SDS011;8446;50.998;6.250;2022-07-24T08:50:03;6.50;;;5.90;;
16665;SDS011;8446;50.998;6.250;2022-07-24T08:52:32;12.57;;;7.70;;
16665;SDS011;8446;50.998;6.250;2022-07-24T08:55:00;8.57;;;5.97;;
16665;SDS011;8446;50.998;6.250;2022-07-24T08:57:27;10.63;;;6.10;;
16665;SDS011;8446;50.998;6.250;2022-07-24T08:59:54;7.77;;;6.10;;
16665;SDS011;8446;50.998;6.250;2022-07-24T09:02:20;13.33;;;6.70;;
16665;SDS011;8446;50.998;6.250;2022-07-24T09:04:48;14.00;;;6.47;;
16665;SDS011;8446;50.998;6.250;2022-07-24T09:07:17;7.47;;;5.77;;
16665;SDS011;8446;50.998;6.250;2022-07-24T09:09:45;7.50;;;5.37;;
16665;SDS011;8446;50.998;6.250;2022-07-24T09:12:24;6.47;;;5.77;;
16665;SDS011;8446;50.998;6.250;2022-07-24T09:14:51;7.27;;;5.60;;
16665;SDS011;8446;50.998;6.250;2022-07-24T09:17:19;9.17;;;6.30;;
16665;SDS011;8446;50.998;6.250;2022-07-24T09:19:49;7.03;;;6.17;;
16665;SDS011;8446;50.998;6.250;2022-07-24T09:22:24;9.63;;;5.90;;
16665;SDS011;8446;50.998;6.250;2022-07-24T09:25:07;13.43;;;5.70;;
16665;SDS011;8446;50.998;6.250;2022-07-24T09:27:40;8.63;;;6.00;;
16665;SDS011;8446;50.998;6.250;2022-07-24T09:30:20;12.47;;;5.20;;
16665;SDS011;8446;50.998;6.250;2022-07-24T09:32:53;9.33;;;5.40;;
16665;SDS011;8446;50.998;6.250;2022-07-24T09:35:28;5.50;;;4.73;;
16665;SDS011;8446;50.998;6.250;2022-07-24T09:37:57;6.73;;;5.00;;
16665;SDS011;8446;50.998;6.250;2022-07-24T09:40:27;7.90;;;5.20;;
16665;SDS011;8446;50.998;6.250;2022-07-24T09:42:56;10.73;;;5.53;;
16665;SDS011;8446;50.998;6.250;2022-07-24T09:45:50;6.73;;;5.20;;
16665;SDS011;8446;50.998;6.250;2022-07-24T09:48:23;12.03;;;5.60;;
16665;SDS011;8446;50.998;6.250;2022-07-24T09:50:53;8.63;;;5.40;;
16665;SDS011;8446;50.998;6.250;2022-07-24T09:53:21;6.07;;;5.47;;
16665;SDS011;8446;50.998;6.250;2022-07-24T09:55:59;11.53;;;5.50;;
16665;SDS011;8446;50.998;6.250;2022-07-24T09:58:29;5.90;;;5.30;;
16665;SDS011;8446;50.998;6.250;2022-07-24T10:00:57;7.20;;;4.97;;
16665;SDS011;8446;50.998;6.250;2022-07-24T10:03:26;4.80;;;4.23;;
16665;SDS011;8446;50.998;6.250;2022-07-24T10:05:56;7.13;;;4.77;;
16665;SDS011;8446;50.998;6.250;2022-07-24T10:08:24;6.17;;;5.57;;
16665;SDS011;8446;50.998;6.250;2022-07-24T10:10:52;7.17;;;5.10;;
16665;SDS011;8446;50.998;6.250;2022-07-24T10:13:19;8.10;;;5.17;;
16665;SDS011;8446;50.998;6.250;2022-07-24T10:15:54;7.23;;;5.30;;
16665;SDS011;8446;50.998;6.250;2022-07-24T10:18:34;5.20;;;4.70;;
16665;SDS011;8446;50.998;6.250;2022-07-24T10:21:14;7.90;;;4.27;;
16665;SDS011;8446;50.998;6.250;2022-07-24T10:23:46;10.73;;;4.60;;
16665;SDS011;8446;50.998;6.250;2022-07-24T10:26:26;6.10;;;4.20;;
16665;SDS011;8446;50.998;6.250;2022-07-24T10:29:01;6.87;;;5.10;;
16665;SDS011;8446;50.998;6.250;2022-07-24T10:31:33;6.10;;;4.37;;
16665;SDS011;8446;50.998;6.250;2022-07-24T10:34:02;7.60;;;5.23;;
16665;SDS011;8446;50.998;6.250;2022-07-24T10:36:34;8.53;;;5.40;;
16665;SDS011;8446;50.998;6.250;2022-07-24T10:39:09;7.03;;;5.10;;
16665;SDS011;8446;50.998;6.250;2022-07-24T10:41:39;4.70;;;4.30;;
16665;SDS011;8446;50.998;6.250;2022-07-24T10:44:12;5.03;;;4.53;;
16665;SDS011;8446;50.998;6.250;2022-07-24T10:46:55;5.57;;;4.70;;
16665;SDS011;8446;50.998;6.250;2022-07-24T10:49:34;6.33;;;4.17;;
16665;SDS011;8446;50.998;6.250;2022-07-24T10:52:08;8.13;;;4.73;;
16665;SDS011;8446;50.998;6.250;2022-07-24T10:54:35;7.77;;;4.60;;
16665;SDS011;8446;50.998;6.250;2022-07-24T10:57:02;6.47;;;4.47;;
16665;SDS011;8446;50.998;6.250;2022-07-24T10:59:33;6.00;;;4.20;;
16665;SDS011;8446;50.998;6.250;2022-07-24T11:11:09;7.17;;;3.50;;
16665;SDS011;8446;50.998;6.250;2022-07-24T11:13:41;7.20;;;4.23;;
16665;SDS011;8446;50.998;6.250;2022-07-24T11:16:20;7.17;;;4.47;;
16665;SDS011;8446;50.998;6.250;2022-07-24T11:22:06;6.90;;;4.50;;
16665;SDS011;8446;50.998;6.250;2022-07-24T11:24:35;7.20;;;4.40;;
16665;SDS011;8446;50.998;6.250;2022-07-24T11:27:29;13.13;;;4.77;;
16665;SDS011;8446;50.998;6.250;2022-07-24T11:30:10;3.93;;;3.63;;
16665;SDS011;8446;50.998;6.250;2022-07-24T11:32:39;3.97;;;3.50;;
16665;SDS011;8446;50.998;6.250;2022-07-24T11:35:06;6.17;;;4.80;;
16665;SDS011;8446;50.998;6.250;2022-07-24T11:37:34;6.20;;;3.60;;
16665;SDS011;8446;50.998;6.250;2022-07-24T11:40:02;5.03;;;4.40;;
16665;SDS011;8446;50.998;6.250;2022-07-24T11:42:33;5.30;;;4.77;;
16665;SDS011;8446;50.998;6.250;2022-07-24T11:45:00;4.60;;;4.20;;
16665;SDS011;8446;50.998;6.250;2022-07-24T11:47:28;4.83;;;3.93;;
16665;SDS011;8446;50.998;6.250;2022-07-24T11:49:55;5.30;;;4.80;;
16665;SDS011;8446;50.998;6.250;2022-07-24T11:52:25;5.37;;;4.40;;
16665;SDS011;8446;50.998;6.250;2022-07-24T11:54:55;6.43;;;4.37;;
16665;SDS011;8446;50.998;6.250;2022-07-24T11:57:23;4.97;;;3.80;;
16665;SDS011;8446;50.998;6.250;2022-07-24T11:59:53;4.23;;;3.90;;
16665;SDS011;8446;50.998;6.250;2022-07-24T12:02:21;5.43;;;4.33;;
16665;SDS011;8446;50.998;6.250;2022-07-24T12:04:49;8.27;;;3.70;;
16665;SDS011;8446;50.998;6.250;2022-07-24T12:07:17;14.30;;;3.73;;
16665;SDS011;8446;50.998;6.250;2022-07-24T12:09:46;5.10;;;3.60;;
16665;SDS011;8446;50.998;6.250;2022-07-24T12:12:21;6.37;;;3.97;;
16665;SDS011;8446;50.998;6.250;2022-07-24T12:14:50;3.90;;;3.30;;
16665;SDS011;8446;50.998;6.250;2022-07-24T12:17:20;5.20;;;3.37;;
16665;SDS011;8446;50.998;6.250;2022-07-24T12:19:50;8.87;;;3.40;;
16665;SDS011;8446;50.998;6.250;2022-07-24T12:22:19;4.70;;;3.27;;
16665;SDS011;8446;50.998;6.250;2022-07-24T12:24:47;6.73;;;3.90;;
16665;SDS011;8446;50.998;6.250;2022-07-24T12:30:02;4.43;;;4.03;;
16665;SDS011;8446;50.998;6.250;2022-07-24T12:32:30;5.47;;;4.33;;
16665;SDS011;8446;50.998;6.250;2022-07-24T12:34:56;3.57;;;3.23;;
16665;SDS011;8446;50.998;6.250;2022-07-24T12:37:23;5.07;;;3.73;;
16665;SDS011;8446;50.998;6.250;2022-07-24T12:39:51;3.90;;;3.60;;
16665;SDS011;8446;50.998;6.250;2022-07-24T12:42:29;4.23;;;3.60;;
16665;SDS011;8446;50.998;6.250;2022-07-24T12:45:06;4.43;;;3.80;;
16665;SDS011;8446;50.998;6.250;2022-07-24T12:47:35;4.17;;;3.77;;
16665;SDS011;8446;50.998;6.250;2022-07-24T12:50:52;3.87;;;3.60;;
16665;SDS011;8446;50.998;6.250;2022-07-24T12:53:28;5.17;;;3.47;;
16665;SDS011;8446;50.998;6.250;2022-07-24T12:56:00;4.20;;;3.80;;
16665;SDS011;8446;50.998;6.250;2022-07-24T12:58:51;5.23;;;3.60;;
16665;SDS011;8446;50.998;6.250;2022-07-24T13:01:22;3.00;;;2.80;;
16665;SDS011;8446;50.998;6.250;2022-07-24T13:03:51;4.83;;;3.30;;
16665;SDS011;8446;50.998;6.250;2022-07-24T13:06:29;4.70;;;3.40;;
16665;SDS011;8446;50.998;6.250;2022-07-24T13:08:59;3.70;;;3.33;;
16665;SDS011;8446;50.998;6.250;2022-07-24T13:11:26;4.10;;;3.43;;
16665;SDS011;8446;50.998;6.250;2022-07-24T13:13:53;4.33;;;2.83;;
16665;SDS011;8446;50.998;6.250;2022-07-24T13:16:21;5.80;;;3.70;;
16665;SDS011;8446;50.998;6.250;2022-07-24T13:18:51;2.90;;;2.70;;
16665;SDS011;8446;50.998;6.250;2022-07-24T13:21:19;4.60;;;4.20;;
16665;SDS011;8446;50.998;6.250;2022-07-24T13:23:46;7.90;;;3.90;;
16665;SDS011;8446;50.998;6.250;2022-07-24T13:26:12;3.27;;;2.97;;
16665;SDS011;8446;50.998;6.250;2022-07-24T13:28:39;6.97;;;3.33;;
16665;SDS011;8446;50.998;6.250;2022-07-24T13:31:06;3.20;;;3.00;;
16665;SDS011;8446;50.998;6.250;2022-07-24T13:33:34;3.97;;;3.50;;
16665;SDS011;8446;50.998;6.250;2022-07-24T13:36:01;3.70;;;3.33;;
16665;SDS011;8446;50.998;6.250;2022-07-24T13:38:28;6.10;;;3.43;;
16665;SDS011;8446;50.998;6.250;2022-07-24T13:40:55;4.33;;;3.17;;
16665;SDS011;8446;50.998;6.250;2022-07-24T13:43:22;4.03;;;3.17;;
16665;SDS011;8446;50.998;6.250;2022-07-24T13:45:50;2.93;;;2.73;;
16665;SDS011;8446;50.998;6.250;2022-07-24T13:48:17;7.60;;;3.30;;
16665;SDS011;8446;50.998;6.250;2022-07-24T13:50:45;4.70;;;3.30;;
16665;SDS011;8446;50.998;6.250;2022-07-24T13:53:12;4.70;;;3.43;;
16665;SDS011;8446;50.998;6.250;2022-07-24T13:55:39;3.37;;;3.03;;
16665;SDS011;8446;50.998;6.250;2022-07-24T13:58:05;3.50;;;3.20;;
16665;SDS011;8446;50.998;6.250;2022-07-24T14:00:32;3.60;;;3.27;;
16665;SDS011;8446;50.998;6.250;2022-07-24T14:02:59;3.63;;;3.23;;
16665;SDS011;8446;50.998;6.250;2022-07-24T14:05:26;3.70;;;3.10;;
16665;SDS011;8446;50.998;6.250;2022-07-24T14:07:54;3.23;;;2.97;;
16665;SDS011;8446;50.998;6.250;2022-07-24T14:10:21;3.13;;;2.93;;
16665;SDS011;8446;50.998;6.250;2022-07-24T14:12:48;3.20;;;3.00;;
16665;SDS011;8446;50.998;6.250;2022-07-24T14:15:15;3.37;;;3.07;;
16665;SDS011;8446;50.998;6.250;2022-07-24T14:17:43;3.60;;;3.33;;
16665;SDS011;8446;50.998;6.250;2022-07-24T14:20:10;3.60;;;3.23;;
16665;SDS011;8446;50.998;6.250;2022-07-24T14:22:38;11.30;;;3.07;;
16665;SDS011;8446;50.998;6.250;2022-07-24T14:25:08;3.47;;;3.20;;
16665;SDS011;8446;50.998;6.250;2022-07-24T14:27:35;4.23;;;3.00;;
16665;SDS011;8446;50.998;6.250;2022-07-24T14:30:04;3.30;;;3.00;;
16665;SDS011;8446;50.998;6.250;2022-07-24T14:32:32;3.20;;;2.90;;
16665;SDS011;8446;50.998;6.250;2022-07-24T14:34:59;3.40;;;3.10;;
16665;SDS011;8446;50.998;6.250;2022-07-24T14:37:26;3.40;;;3.10;;
16665;SDS011;8446;50.998;6.250;2022-07-24T14:39:53;6.27;;;3.17;;
16665;SDS011;8446;50.998;6.250;2022-07-24T14:42:21;3.30;;;3.10;;
16665;SDS011;8446;50.998;6.250;2022-07-24T14:44:48;3.20;;;3.00;;
16665;SDS011;8446;50.998;6.250;2022-07-24T14:47:15;3.87;;;3.33;;
16665;SDS011;8446;50.998;6.250;2022-07-24T14:49:42;4.07;;;3.30;;
16665;SDS011;8446;50.998;6.250;2022-07-24T14:52:09;3.73;;;3.33;;
16665;SDS011;8446;50.998;6.250;2022-07-24T14:54:36;3.10;;;2.80;;
16665;SDS011;8446;50.998;6.250;2022-07-24T14:57:03;3.47;;;3.00;;
16665;SDS011;8446;50.998;6.250;2022-07-24T14:59:31;3.53;;;3.23;;
16665;SDS011;8446;50.998;6.250;2022-07-24T15:01:57;3.33;;;3.03;;
16665;SDS011;8446;50.998;6.250;2022-07-24T15:04:24;5.93;;;3.10;;
16665;SDS011;8446;50.998;6.250;2022-07-24T15:06:51;3.67;;;3.13;;
16665;SDS011;8446;50.998;6.250;2022-07-24T15:09:18;3.03;;;2.80;;
16665;SDS011;8446;50.998;6.250;2022-07-24T15:11:45;3.33;;;2.88;;
16665;SDS011;8446;50.998;6.250;2022-07-24T15:14:11;3.47;;;3.15;;
16665;SDS011;8446;50.998;6.250;2022-07-24T15:16:40;3.15;;;2.95;;